Time,TemperatureF,DewpointF,PressureIn,WindDirection,WindDirectionDegrees,WindSpeedMPH,WindSpeedGustMPH,Humidity,HourlyPrecipIn,Conditions,Clouds,dailyrainin,SoftwareType,DateUTC
2013-05-01 00:01:00,68.2,59.2,29.18,ESE,113,8.0,8.0,73,0.00,,,0.16,meteohub,2013-05-01 04:01:00,
2013-05-01 00:02:00,68.2,59.2,29.18,SE,135,6.0,6.0,73,0.00,,,0.16,meteohub,2013-05-01 04:02:00,
2013-05-01 00:07:00,68.5,59.5,29.18,ESE,113,4.0,8.0,73,0.00,,,0.00,meteohub,2013-05-01 04:07:00,
2013-05-01 00:12:00,68.7,59.7,29.18,SSW,203,2.0,8.0,73,0.00,,,0.00,meteohub,2013-05-01 04:12:00,
2013-05-01 00:17:00,68.7,59.7,29.17,SSE,158,9.0,9.0,73,0.00,,,0.00,meteohub,2013-05-01 04:17:00,
2013-05-01 00:22:00,68.9,59.9,29.17,SSE,158,3.0,9.0,73,0.00,,,0.00,meteohub,2013-05-01 04:22:00,
2013-05-01 00:27:00,68.5,59.5,29.17,ESE,113,3.0,9.0,73,0.00,,,0.00,meteohub,2013-05-01 04:27:00,
2013-05-01 00:32:00,68.5,59.5,29.17,ESE,113,3.0,9.0,73,0.00,,,0.00,meteohub,2013-05-01 04:32:00,
2013-05-01 00:37:00,68.5,59.5,29.17,SE,135,4.0,6.0,73,0.00,,,0.00,meteohub,2013-05-01 04:37:00,
2013-05-01 00:42:00,68.4,59.4,29.17,ESE,113,4.0,6.0,73,0.00,,,0.00,meteohub,2013-05-01 04:42:00,
2013-05-01 00:47:00,68.5,59.5,29.17,SSE,158,5.0,6.0,73,0.00,,,0.00,meteohub,2013-05-01 04:47:00,
2013-05-01 00:52:00,68.5,59.5,29.17,SSW,203,5.0,6.0,73,0.00,,,0.00,meteohub,2013-05-01 04:52:00,
2013-05-01 00:57:00,68.5,59.5,29.18,South,180,7.0,7.0,73,0.00,,,0.00,meteohub,2013-05-01 04:57:00,
2013-05-01 01:02:00,68.5,59.5,29.18,South,180,6.0,7.0,73,0.00,,,0.00,meteohub,2013-05-01 05:02:00,
2013-05-01 01:07:00,68.7,59.7,29.18,SE,135,5.0,7.0,73,0.00,,,0.00,meteohub,2013-05-01 05:07:00,
2013-05-01 01:12:00,68.9,59.9,29.18,SSE,158,2.0,7.0,73,0.00,,,0.00,meteohub,2013-05-01 05:12:00,
2013-05-01 01:17:00,68.9,59.9,29.18,South,180,5.0,8.0,73,0.00,,,0.00,meteohub,2013-05-01 05:17:00,
2013-05-01 01:22:00,68.9,59.9,29.18,SSW,203,5.0,10.0,73,0.00,,,0.00,meteohub,2013-05-01 05:22:00,
2013-05-01 01:27:00,69.1,59.7,29.18,ESE,113,3.0,10.0,72,0.00,,,0.00,meteohub,2013-05-01 05:27:00,
2013-05-01 01:32:00,69.3,59.9,29.18,South,180,4.0,10.0,72,0.00,,,0.00,meteohub,2013-05-01 05:32:00,
2013-05-01 01:37:00,69.3,59.9,29.19,SSE,158,8.0,8.0,72,0.00,,,0.00,meteohub,2013-05-01 05:37:00,
2013-05-01 01:42:00,69.3,59.9,29.19,ESE,113,6.0,8.0,72,0.00,,,0.00,meteohub,2013-05-01 05:42:00,
2013-05-01 01:47:00,69.1,59.7,29.19,SW,225,11.0,11.0,72,0.00,,,0.00,meteohub,2013-05-01 05:47:00,
2013-05-01 01:52:00,69.1,59.4,29.19,SSE,158,5.0,11.0,71,0.00,,,0.00,meteohub,2013-05-01 05:52:00,
2013-05-01 01:57:00,68.9,59.5,29.20,SSW,203,6.0,11.0,72,0.00,,,0.00,meteohub,2013-05-01 05:57:00,
2013-05-01 02:02:00,69.3,59.9,29.20,SSE,158,10.0,11.0,72,0.00,,,0.00,meteohub,2013-05-01 06:02:00,
2013-05-01 02:07:00,69.4,60.1,29.20,SSE,158,12.0,13.0,72,0.00,,,0.00,meteohub,2013-05-01 06:07:00,
2013-05-01 02:12:00,69.6,59.7,29.20,SSW,203,12.0,13.0,71,0.00,,,0.00,meteohub,2013-05-01 06:12:00,
2013-05-01 02:17:00,69.6,60.3,29.21,SE,135,7.0,13.0,72,0.00,,,0.00,meteohub,2013-05-01 06:17:00,
2013-05-01 02:22:00,69.6,60.3,29.21,SSE,158,7.0,12.0,72,0.00,,,0.00,meteohub,2013-05-01 06:22:00,
2013-05-01 02:27:00,69.6,59.7,29.21,South,180,9.0,15.0,71,0.00,,,0.00,meteohub,2013-05-01 06:27:00,
2013-05-01 02:32:00,69.4,60.1,29.21,WSW,248,9.0,15.0,72,0.00,,,0.00,meteohub,2013-05-01 06:32:00,
2013-05-01 02:37:00,69.3,59.9,29.22,South,180,9.0,13.0,72,0.00,,,0.00,meteohub,2013-05-01 06:37:00,
2013-05-01 02:42:00,69.3,59.9,29.22,South,180,8.0,13.0,72,0.00,,,0.00,meteohub,2013-05-01 06:42:00,
2013-05-01 02:47:00,68.9,59.5,29.22,South,180,9.0,13.0,72,0.00,,,0.00,meteohub,2013-05-01 06:47:00,
2013-05-01 02:52:00,68.9,59.9,29.22,SW,225,11.0,13.0,73,0.00,,,0.00,meteohub,2013-05-01 06:52:00,
2013-05-01 02:58:00,68.9,59.9,29.23,SSE,158,9.0,11.0,73,0.00,,,0.00,meteohub,2013-05-01 06:58:00,
2013-05-01 03:03:00,68.7,59.7,29.23,SSW,203,6.0,14.0,73,0.00,,,0.00,meteohub,2013-05-01 07:03:00,
2013-05-01 03:08:00,68.5,59.5,29.23,South,180,4.0,14.0,73,0.00,,,0.00,meteohub,2013-05-01 07:08:00,
2013-05-01 03:13:00,68.5,59.5,29.23,SSE,158,8.0,9.0,73,0.00,,,0.00,meteohub,2013-05-01 07:13:00,
2013-05-01 03:18:00,68.4,59.7,29.23,South,180,5.0,16.0,74,0.00,,,0.00,meteohub,2013-05-01 07:18:00,
2013-05-01 03:23:00,68.4,59.4,29.23,SW,225,7.0,16.0,73,0.00,,,0.00,meteohub,2013-05-01 07:23:00,
2013-05-01 03:28:00,68.2,59.5,29.23,SSE,158,8.0,13.0,74,0.00,,,0.00,meteohub,2013-05-01 07:28:00,
2013-05-01 03:33:00,68.2,59.5,29.23,SSW,203,7.0,13.0,74,0.00,,,0.00,meteohub,2013-05-01 07:33:00,
2013-05-01 03:38:00,68.0,59.0,29.23,SW,225,5.0,9.0,73,0.00,,,0.00,meteohub,2013-05-01 07:38:00,
2013-05-01 03:43:00,68.0,59.0,29.23,SW,225,7.0,9.0,73,0.00,,,0.00,meteohub,2013-05-01 07:43:00,
2013-05-01 03:48:00,67.8,59.2,29.23,South,180,6.0,8.0,74,0.00,,,0.00,meteohub,2013-05-01 07:48:00,
2013-05-01 03:53:00,67.6,59.0,29.23,SW,225,4.0,8.0,74,0.00,,,0.00,meteohub,2013-05-01 07:53:00,
2013-05-01 03:58:00,67.6,59.0,29.24,South,180,6.0,7.0,74,0.00,,,0.00,meteohub,2013-05-01 07:58:00,
2013-05-01 04:03:00,67.6,59.0,29.24,SSE,158,6.0,6.0,74,0.00,,,0.00,meteohub,2013-05-01 08:03:00,
2013-05-01 04:08:00,67.6,59.0,29.24,SSW,203,5.0,7.0,74,0.00,,,0.00,meteohub,2013-05-01 08:08:00,
2013-05-01 04:13:00,67.6,59.0,29.24,SSE,158,8.0,8.0,74,0.00,,,0.00,meteohub,2013-05-01 08:13:00,
2013-05-01 04:18:00,67.8,59.2,29.25,SW,225,6.0,7.0,74,0.00,,,0.00,meteohub,2013-05-01 08:18:00,
2013-05-01 04:23:00,67.6,59.0,29.25,SSE,158,4.0,8.0,74,0.00,,,0.00,meteohub,2013-05-01 08:23:00,
2013-05-01 04:28:00,67.6,59.0,29.25,SW,225,4.0,8.0,74,0.00,,,0.00,meteohub,2013-05-01 08:28:00,
2013-05-01 04:33:00,67.5,58.8,29.25,NNE,23,6.0,6.0,74,0.00,,,0.00,meteohub,2013-05-01 08:33:00,
2013-05-01 04:38:00,67.5,58.8,29.26,SE,135,6.0,6.0,74,0.00,,,0.00,meteohub,2013-05-01 08:38:00,
2013-05-01 04:43:00,67.5,58.8,29.26,SSW,203,4.0,6.0,74,0.00,,,0.00,meteohub,2013-05-01 08:43:00,
2013-05-01 04:48:00,67.5,58.8,29.26,SSW,203,4.0,8.0,74,0.00,,,0.00,meteohub,2013-05-01 08:48:00,
2013-05-01 04:53:00,67.5,58.8,29.26,SSE,158,3.0,8.0,74,0.00,,,0.00,meteohub,2013-05-01 08:53:00,
2013-05-01 04:58:00,67.5,59.2,29.27,WSW,248,3.0,5.0,75,0.00,,,0.00,meteohub,2013-05-01 08:58:00,
2013-05-01 05:03:00,67.5,58.8,29.27,NW,315,3.0,5.0,74,0.00,,,0.00,meteohub,2013-05-01 09:03:00,
2013-05-01 05:08:00,65.1,55.0,29.27,NW,315,2.0,5.0,70,0.00,,,0.00,meteohub,2013-05-01 09:08:00,
2013-05-01 05:13:00,63.3,53.8,29.27,North,0,3.0,10.0,71,0.00,,,0.00,meteohub,2013-05-01 09:13:00,
2013-05-01 05:18:00,60.8,52.2,29.29,North,0,4.0,10.0,73,0.00,,,0.00,meteohub,2013-05-01 09:18:00,
2013-05-01 05:23:00,59.5,50.9,29.29,NNW,338,7.0,7.0,73,0.00,,,0.00,meteohub,2013-05-01 09:23:00,
2013-05-01 05:28:00,57.7,49.5,29.29,NNW,338,0.0,7.0,74,0.00,,,0.00,meteohub,2013-05-01 09:28:00,
2013-05-01 05:33:00,56.7,48.7,29.29,NNE,23,4.0,7.0,75,0.00,,,0.00,meteohub,2013-05-01 09:33:00,
2013-05-01 05:38:00,55.4,47.7,29.31,NNW,338,5.0,7.0,75,0.00,,,0.00,meteohub,2013-05-01 09:38:00,
2013-05-01 05:43:00,54.9,47.5,29.31,NNE,23,2.0,6.0,76,0.00,,,0.00,meteohub,2013-05-01 09:43:00,
2013-05-01 05:48:00,54.3,46.9,29.31,NNE,23,3.0,6.0,76,0.00,,,0.00,meteohub,2013-05-01 09:48:00,
2013-05-01 05:54:00,54.1,46.4,29.31,NNE,23,2.0,6.0,75,0.00,,,0.00,meteohub,2013-05-01 09:54:00,
2013-05-01 05:59:00,54.1,46.4,29.31,NNE,23,3.0,3.0,75,0.00,,,0.00,meteohub,2013-05-01 09:59:00,
2013-05-01 06:04:00,54.1,46.0,29.31,North,0,2.0,3.0,74,0.00,,,0.00,meteohub,2013-05-01 10:04:00,
2013-05-01 06:09:00,54.3,45.5,29.31,NNE,23,3.0,3.0,72,0.00,,,0.00,meteohub,2013-05-01 10:09:00,
2013-05-01 06:14:00,54.5,45.3,29.31,NNE,23,4.0,4.0,71,0.00,,,0.00,meteohub,2013-05-01 10:14:00,
2013-05-01 06:19:00,54.9,45.7,29.32,NNE,23,2.0,4.0,71,0.00,,,0.00,meteohub,2013-05-01 10:19:00,
2013-05-01 06:24:00,55.0,45.9,29.32,NNE,23,0.0,4.0,71,0.00,,,0.00,meteohub,2013-05-01 10:24:00,
2013-05-01 06:29:00,55.0,45.9,29.32,NNE,23,2.0,4.0,71,0.00,,,0.00,meteohub,2013-05-01 10:29:00,
2013-05-01 06:34:00,55.2,45.7,29.32,East,90,2.0,3.0,70,0.00,,,0.00,meteohub,2013-05-01 10:34:00,
2013-05-01 06:39:00,55.2,45.7,29.32,ESE,113,0.0,3.0,70,0.00,,,0.00,meteohub,2013-05-01 10:39:00,
2013-05-01 06:44:00,55.6,46.0,29.32,NE,45,0.0,3.0,70,0.00,,,0.00,meteohub,2013-05-01 10:44:00,
2013-05-01 06:49:00,55.6,46.0,29.32,NE,45,2.0,2.0,70,0.00,,,0.00,meteohub,2013-05-01 10:49:00,
2013-05-01 06:54:00,55.8,46.0,29.32,East,90,0.0,2.0,70,0.00,,,0.00,meteohub,2013-05-01 10:54:00,
2013-05-01 06:59:00,55.9,46.2,29.32,East,90,0.0,3.0,70,0.00,,,0.00,meteohub,2013-05-01 10:59:00,
2013-05-01 07:04:00,56.1,46.4,29.32,NNE,23,0.0,3.0,70,0.00,,,0.00,meteohub,2013-05-01 11:04:00,
2013-05-01 07:09:00,56.7,47.3,29.32,NNE,23,0.0,3.0,71,0.00,,,0.00,meteohub,2013-05-01 11:09:00,
2013-05-01 07:14:00,56.7,47.3,29.33,ESE,113,0.0,2.0,71,0.00,,,0.00,meteohub,2013-05-01 11:14:00,
2013-05-01 07:19:00,57.0,47.7,29.33,SE,135,0.0,0.0,71,0.00,,,0.00,meteohub,2013-05-01 11:19:00,
2013-05-01 07:24:00,57.0,48.0,29.33,ESE,113,0.0,0.0,72,0.00,,,0.00,meteohub,2013-05-01 11:24:00,
2013-05-01 07:29:00,57.2,48.2,29.33,ESE,113,0.0,0.0,72,0.00,,,0.00,meteohub,2013-05-01 11:29:00,
2013-05-01 07:34:00,57.6,48.2,29.33,ESE,113,0.0,0.0,71,0.00,,,0.00,meteohub,2013-05-01 11:34:00,
2013-05-01 07:39:00,58.1,49.1,29.32,East,90,0.0,0.0,72,0.00,,,0.00,meteohub,2013-05-01 11:39:00,
2013-05-01 07:44:00,58.5,49.5,29.32,ESE,113,2.0,0.0,72,0.00,,,0.00,meteohub,2013-05-01 11:44:00,
2013-05-01 07:49:00,59.0,50.4,29.32,East,90,2.0,2.0,73,0.00,,,0.00,meteohub,2013-05-01 11:49:00,
2013-05-01 07:54:00,59.0,50.4,29.32,ESE,113,3.0,3.0,73,0.00,,,0.00,meteohub,2013-05-01 11:54:00,
2013-05-01 07:59:00,59.2,50.9,29.33,SE,135,1.0,3.0,74,0.00,,,0.00,meteohub,2013-05-01 11:59:00,
2013-05-01 08:04:00,59.2,50.9,29.33,ESE,113,2.0,3.0,74,0.00,,,0.00,meteohub,2013-05-01 12:04:00,
2013-05-01 08:09:00,59.2,50.9,29.33,ESE,113,2.0,3.0,74,0.00,,,0.00,meteohub,2013-05-01 12:09:00,
2013-05-01 08:14:00,59.0,50.7,29.33,ESE,113,1.0,2.0,74,0.00,,,0.00,meteohub,2013-05-01 12:14:00,
2013-05-01 08:19:00,59.0,51.1,29.33,ESE,113,2.0,2.0,75,0.00,,,0.00,meteohub,2013-05-01 12:19:00,
2013-05-01 08:24:00,59.4,51.1,29.33,ESE,113,0.0,2.0,74,0.00,,,0.00,meteohub,2013-05-01 12:24:00,
2013-05-01 08:29:00,59.7,51.4,29.33,ESE,113,0.0,2.0,74,0.00,,,0.00,meteohub,2013-05-01 12:29:00,
2013-05-01 08:34:00,60.1,52.2,29.34,East,90,2.0,2.0,75,0.00,,,0.00,meteohub,2013-05-01 12:34:00,
2013-05-01 08:39:00,60.4,52.5,29.34,East,90,0.0,2.0,75,0.00,,,0.00,meteohub,2013-05-01 12:39:00,
2013-05-01 08:44:00,61.0,53.1,29.34,South,180,0.0,2.0,75,0.00,,,0.00,meteohub,2013-05-01 12:44:00,
2013-05-01 08:49:00,61.0,53.1,29.34,SW,225,0.0,2.0,75,0.00,,,0.00,meteohub,2013-05-01 12:49:00,
2013-05-01 08:54:00,61.0,53.1,29.34,South,180,2.0,2.0,75,0.00,,,0.00,meteohub,2013-05-01 12:54:00,
2013-05-01 08:59:00,61.2,53.2,29.34,SSE,158,1.0,2.0,75,0.00,,,0.00,meteohub,2013-05-01 12:59:00,
2013-05-01 09:04:00,61.7,53.8,29.34,SSW,203,0.0,2.0,75,0.00,,,0.00,meteohub,2013-05-01 13:04:00,
2013-05-01 09:09:00,61.9,53.8,29.34,SW,225,0.0,2.0,75,0.00,,,0.00,meteohub,2013-05-01 13:09:00,
2013-05-01 09:14:00,62.4,54.3,29.34,SSW,203,0.0,2.0,75,0.00,,,0.00,meteohub,2013-05-01 13:14:00,
2013-05-01 09:19:00,63.3,55.2,29.34,SSW,203,0.0,2.0,75,0.00,,,0.00,meteohub,2013-05-01 13:19:00,
2013-05-01 09:24:00,64.4,56.3,29.34,South,180,2.0,2.0,75,0.00,,,0.00,meteohub,2013-05-01 13:24:00,
2013-05-01 09:29:00,65.3,57.2,29.34,WNW,293,0.0,2.0,75,0.00,,,0.00,meteohub,2013-05-01 13:29:00,
2013-05-01 09:34:00,66.2,58.1,29.34,SSE,158,2.0,5.0,75,0.00,,,0.00,meteohub,2013-05-01 13:34:00,
2013-05-01 09:40:00,67.3,58.6,29.34,SSE,158,0.0,5.0,74,0.00,,,0.00,meteohub,2013-05-01 13:40:00,
2013-05-01 09:45:00,68.2,59.5,29.34,SSE,158,5.0,5.0,74,0.00,,,0.00,meteohub,2013-05-01 13:45:00,
2013-05-01 09:50:00,68.9,60.3,29.34,WSW,248,4.0,4.0,74,0.00,,,0.00,meteohub,2013-05-01 13:50:00,
2013-05-01 09:55:00,69.8,60.4,29.34,SE,135,4.0,8.0,72,0.00,,,0.00,meteohub,2013-05-01 13:55:00,
2013-05-01 10:00:00,70.7,61.2,29.34,SSW,203,5.0,8.0,72,0.00,,,0.00,meteohub,2013-05-01 14:00:00,
2013-05-01 10:05:00,71.1,60.8,29.34,SSW,203,6.0,8.0,70,0.00,,,0.00,meteohub,2013-05-01 14:05:00,
2013-05-01 10:10:00,71.4,60.8,29.34,SW,225,6.0,7.0,69,0.00,,,0.00,meteohub,2013-05-01 14:10:00,
2013-05-01 10:15:00,71.6,61.3,29.35,NNE,23,4.0,7.0,70,0.00,,,0.00,meteohub,2013-05-01 14:15:00,
2013-05-01 10:20:00,72.1,61.3,29.35,WSW,248,6.0,7.0,69,0.00,,,0.00,meteohub,2013-05-01 14:20:00,
2013-05-01 10:25:00,72.9,61.7,29.35,SSW,203,4.0,7.0,68,0.00,,,0.00,meteohub,2013-05-01 14:25:00,
2013-05-01 10:30:00,73.4,61.7,29.35,SW,225,5.0,6.0,67,0.00,,,0.00,meteohub,2013-05-01 14:30:00,
2013-05-01 10:35:00,74.3,62.6,29.36,SW,225,6.0,7.0,67,0.00,,,0.00,meteohub,2013-05-01 14:35:00,
2013-05-01 10:40:00,74.5,61.9,29.36,West,270,6.0,7.0,65,0.00,,,0.00,meteohub,2013-05-01 14:40:00,
2013-05-01 10:45:00,74.3,62.2,29.36,SE,135,6.0,7.0,66,0.00,,,0.00,meteohub,2013-05-01 14:45:00,
2013-05-01 10:50:00,74.3,62.2,29.36,WSW,248,4.0,9.0,66,0.00,,,0.00,meteohub,2013-05-01 14:50:00,
2013-05-01 10:55:00,73.9,61.9,29.36,WNW,293,4.0,9.0,66,0.00,,,0.00,meteohub,2013-05-01 14:55:00,
2013-05-01 11:00:00,73.9,61.9,29.36,SW,225,5.0,9.0,66,0.00,,,0.00,meteohub,2013-05-01 15:00:00,
2013-05-01 11:05:00,73.8,61.3,29.36,SE,135,4.0,7.0,65,0.00,,,0.00,meteohub,2013-05-01 15:05:00,
2013-05-01 11:10:00,73.9,61.9,29.36,South,180,3.0,7.0,66,0.00,,,0.00,meteohub,2013-05-01 15:10:00,
2013-05-01 11:15:00,74.3,61.7,29.37,SSW,203,5.0,7.0,65,0.00,,,0.00,meteohub,2013-05-01 15:15:00,
2013-05-01 11:20:00,74.7,61.7,29.37,NW,315,4.0,7.0,64,0.00,,,0.00,meteohub,2013-05-01 15:20:00,
2013-05-01 11:25:00,74.1,60.3,29.37,North,0,5.0,7.0,62,0.00,,,0.00,meteohub,2013-05-01 15:25:00,
2013-05-01 11:30:00,72.5,58.3,29.37,NW,315,7.0,7.0,61,0.00,,,0.00,meteohub,2013-05-01 15:30:00,
2013-05-01 11:35:00,69.8,55.8,29.39,NW,315,8.0,8.0,61,0.00,,,0.00,meteohub,2013-05-01 15:35:00,
2013-05-01 11:40:00,67.6,55.0,29.39,WNW,293,9.0,9.0,64,0.00,,,0.00,meteohub,2013-05-01 15:40:00,
2013-05-01 11:45:00,66.7,55.0,29.39,WNW,293,5.0,8.0,66,0.00,,,0.00,meteohub,2013-05-01 15:45:00,
2013-05-01 11:50:00,66.2,54.9,29.39,WSW,248,5.0,9.0,67,0.00,,,0.00,meteohub,2013-05-01 15:50:00,
2013-05-01 11:55:00,66.0,55.2,29.39,NW,315,3.0,9.0,68,0.00,,,0.00,meteohub,2013-05-01 15:55:00,
2013-05-01 12:00:00,66.4,55.9,29.39,North,0,8.0,8.0,69,0.00,,,0.00,meteohub,2013-05-01 16:00:00,
2013-05-01 12:05:00,66.6,56.1,29.39,North,0,8.0,8.0,69,0.00,,,0.00,meteohub,2013-05-01 16:05:00,
2013-05-01 12:10:00,66.9,56.5,29.39,ENE,68,3.0,8.0,69,0.00,,,0.00,meteohub,2013-05-01 16:10:00,
2013-05-01 12:15:00,67.3,56.8,29.40,North,0,4.0,8.0,69,0.00,,,0.00,meteohub,2013-05-01 16:15:00,
2013-05-01 12:20:00,68.0,57.0,29.40,North,0,3.0,8.0,68,0.00,,,0.00,meteohub,2013-05-01 16:20:00,
2013-05-01 12:25:00,68.5,57.2,29.40,West,270,3.0,7.0,67,0.00,,,0.00,meteohub,2013-05-01 16:25:00,
2013-05-01 12:30:00,69.1,57.7,29.40,NE,45,4.0,6.0,67,0.00,,,0.00,meteohub,2013-05-01 16:30:00,
2013-05-01 12:35:00,69.3,57.4,29.40,WNW,293,3.0,6.0,66,0.00,,,0.00,meteohub,2013-05-01 16:35:00,
2013-05-01 12:41:00,69.4,56.7,29.40,NE,45,5.0,8.0,64,0.00,,,0.00,meteohub,2013-05-01 16:41:00,
2013-05-01 12:46:00,69.6,57.7,29.40,NW,315,4.0,8.0,66,0.00,,,0.00,meteohub,2013-05-01 16:46:00,
2013-05-01 12:51:00,69.8,57.6,29.40,North,0,4.0,8.0,65,0.00,,,0.00,meteohub,2013-05-01 16:51:00,
2013-05-01 12:56:00,70.0,56.8,29.40,WSW,248,7.0,7.0,63,0.00,,,0.00,meteohub,2013-05-01 16:56:00,
2013-05-01 13:01:00,69.6,56.8,29.40,North,0,3.0,6.0,64,0.00,,,0.00,meteohub,2013-05-01 17:01:00,
2013-05-01 13:06:00,70.0,56.8,29.40,NNE,23,9.0,9.0,63,0.00,,,0.00,meteohub,2013-05-01 17:06:00,
2013-05-01 13:11:00,69.1,56.5,29.40,West,270,2.0,9.0,64,0.00,,,0.00,meteohub,2013-05-01 17:11:00,
2013-05-01 13:16:00,69.4,56.7,29.41,NNW,338,2.0,9.0,64,0.00,,,0.00,meteohub,2013-05-01 17:16:00,
2013-05-01 13:21:00,69.4,56.3,29.41,ESE,113,9.0,9.0,63,0.00,,,0.00,meteohub,2013-05-01 17:21:00,
2013-05-01 13:26:00,68.7,56.1,29.41,East,90,4.0,9.0,64,0.00,,,0.00,meteohub,2013-05-01 17:26:00,
2013-05-01 13:31:00,68.4,56.1,29.41,WNW,293,11.0,11.0,65,0.00,,,0.00,meteohub,2013-05-01 17:31:00,
2013-05-01 13:36:00,68.5,56.3,29.41,North,0,4.0,11.0,65,0.00,,,0.00,meteohub,2013-05-01 17:36:00,
2013-05-01 13:41:00,68.2,56.3,29.41,NW,315,8.0,11.0,66,0.00,,,0.00,meteohub,2013-05-01 17:41:00,
2013-05-01 13:46:00,68.2,56.3,29.41,NNW,338,8.0,10.0,66,0.00,,,0.00,meteohub,2013-05-01 17:46:00,
2013-05-01 13:51:00,67.8,56.5,29.41,WNW,293,7.0,10.0,67,0.00,,,0.00,meteohub,2013-05-01 17:51:00,
2013-05-01 13:56:00,68.4,57.0,29.41,North,0,6.0,10.0,67,0.00,,,0.00,meteohub,2013-05-01 17:56:00,
2013-05-01 14:01:00,68.7,56.8,29.41,SW,225,10.0,10.0,66,0.00,,,0.00,meteohub,2013-05-01 18:01:00,
2013-05-01 14:07:00,68.4,56.1,29.41,NW,315,7.0,10.0,65,0.00,,,0.00,meteohub,2013-05-01 18:07:00,
2013-05-01 14:12:00,67.8,55.6,29.41,North,0,3.0,10.0,65,0.00,,,0.00,meteohub,2013-05-01 18:12:00,
2013-05-01 14:17:00,68.0,55.8,29.42,WNW,293,5.0,10.0,65,0.00,,,0.00,meteohub,2013-05-01 18:17:00,
2013-05-01 14:22:00,68.2,55.9,29.42,SW,225,4.0,10.0,65,0.00,,,0.00,meteohub,2013-05-01 18:22:00,
2013-05-01 14:27:00,68.4,56.1,29.42,NW,315,4.0,10.0,65,0.00,,,0.00,meteohub,2013-05-01 18:27:00,
2013-05-01 14:32:00,68.5,56.3,29.42,WSW,248,8.0,10.0,65,0.00,,,0.00,meteohub,2013-05-01 18:32:00,
2013-05-01 14:37:00,68.4,55.8,29.43,NW,315,7.0,8.0,64,0.00,,,0.00,meteohub,2013-05-01 18:37:00,
2013-05-01 14:42:00,68.0,55.4,29.43,NNE,23,3.0,9.0,64,0.00,,,0.00,meteohub,2013-05-01 18:42:00,
2013-05-01 14:47:00,67.8,55.2,29.43,NW,315,7.0,9.0,64,0.00,,,0.00,meteohub,2013-05-01 18:47:00,
2013-05-01 14:52:00,67.5,55.2,29.43,NW,315,9.0,9.0,65,0.00,,,0.00,meteohub,2013-05-01 18:52:00,
2013-05-01 14:57:00,67.8,56.1,29.43,NE,45,0.0,9.0,66,0.00,,,0.00,meteohub,2013-05-01 18:57:00,
2013-05-01 15:02:00,68.4,56.1,29.43,WNW,293,7.0,9.0,65,0.00,,,0.00,meteohub,2013-05-01 19:02:00,
2013-05-01 15:07:00,68.7,56.5,29.43,North,0,4.0,9.0,65,0.00,,,0.00,meteohub,2013-05-01 19:07:00,
2013-05-01 15:12:00,68.9,57.0,29.43,WSW,248,6.0,8.0,66,0.00,,,0.00,meteohub,2013-05-01 19:12:00,
2013-05-01 15:17:00,69.1,56.8,29.42,North,0,7.0,10.0,65,0.00,,,0.00,meteohub,2013-05-01 19:17:00,
2013-05-01 15:22:00,69.1,56.8,29.42,NW,315,6.0,10.0,65,0.00,,,0.00,meteohub,2013-05-01 19:22:00,
2013-05-01 15:27:00,69.3,57.0,29.42,NE,45,3.0,10.0,65,0.00,,,0.00,meteohub,2013-05-01 19:27:00,
2013-05-01 15:32:00,69.6,57.4,29.42,WNW,293,8.0,9.0,65,0.00,,,0.00,meteohub,2013-05-01 19:32:00,
2013-05-01 15:37:00,70.5,57.7,29.44,NW,315,3.0,8.0,64,0.00,,,0.00,meteohub,2013-05-01 19:37:00,
2013-05-01 15:42:00,70.5,57.4,29.44,NNE,23,8.0,8.0,63,0.00,,,0.00,meteohub,2013-05-01 19:42:00,
2013-05-01 15:47:00,69.8,57.0,29.44,WNW,293,7.0,8.0,64,0.00,,,0.00,meteohub,2013-05-01 19:47:00,
2013-05-01 15:52:00,70.0,57.2,29.44,NW,315,6.0,8.0,64,0.00,,,0.00,meteohub,2013-05-01 19:52:00,
2013-05-01 15:57:00,70.0,57.7,29.45,WNW,293,6.0,9.0,65,0.00,,,0.00,meteohub,2013-05-01 19:57:00,
2013-05-01 16:02:00,70.3,58.1,29.45,NNE,23,9.0,9.0,65,0.00,,,0.00,meteohub,2013-05-01 20:02:00,
2013-05-01 16:07:00,70.3,58.1,29.45,North,0,4.0,9.0,65,0.00,,,0.00,meteohub,2013-05-01 20:07:00,
2013-05-01 16:12:00,70.5,58.1,29.45,NNE,23,5.0,9.0,65,0.00,,,0.00,meteohub,2013-05-01 20:12:00,
2013-05-01 16:17:00,70.7,57.9,29.44,WNW,293,3.0,9.0,64,0.00,,,0.00,meteohub,2013-05-01 20:17:00,
2013-05-01 16:22:00,71.2,58.5,29.44,NNW,338,4.0,7.0,64,0.00,,,0.00,meteohub,2013-05-01 20:22:00,
2013-05-01 16:27:00,71.8,58.5,29.44,NNE,23,5.0,6.0,63,0.00,,,0.00,meteohub,2013-05-01 20:27:00,
2013-05-01 16:32:00,72.1,58.8,29.44,North,0,5.0,5.0,63,0.00,,,0.00,meteohub,2013-05-01 20:32:00,
2013-05-01 16:37:00,72.9,58.6,29.44,NW,315,4.0,5.0,61,0.00,,,0.00,meteohub,2013-05-01 20:37:00,
2013-05-01 16:42:00,72.9,58.6,29.44,NNE,23,2.0,8.0,61,0.00,,,0.00,meteohub,2013-05-01 20:42:00,
2013-05-01 16:48:00,73.6,59.4,29.44,WSW,248,6.0,8.0,61,0.00,,,0.00,meteohub,2013-05-01 20:48:00,
2013-05-01 16:53:00,74.3,59.5,29.44,SW,225,3.0,6.0,60,0.00,,,0.00,meteohub,2013-05-01 20:53:00,
2013-05-01 16:58:00,74.8,59.0,29.44,WNW,293,3.0,6.0,58,0.00,,,0.00,meteohub,2013-05-01 20:58:00,
2013-05-01 17:03:00,75.0,59.2,29.44,WSW,248,2.0,6.0,58,0.00,,,0.00,meteohub,2013-05-01 21:03:00,
2013-05-01 17:08:00,75.6,59.7,29.44,NW,315,4.0,7.0,58,0.00,,,0.00,meteohub,2013-05-01 21:08:00,
2013-05-01 17:13:00,74.8,58.1,29.44,WNW,293,5.0,7.0,56,0.00,,,0.00,meteohub,2013-05-01 21:13:00,
2013-05-01 17:18:00,75.0,58.8,29.44,WNW,293,2.0,8.0,57,0.00,,,0.00,meteohub,2013-05-01 21:18:00,
2013-05-01 17:23:00,74.7,57.9,29.44,ESE,113,4.0,8.0,56,0.00,,,0.00,meteohub,2013-05-01 21:23:00,
2013-05-01 17:28:00,74.1,57.9,29.44,NNW,338,2.0,6.0,57,0.00,,,0.00,meteohub,2013-05-01 21:28:00,
2013-05-01 17:33:00,73.6,57.4,29.44,NW,315,4.0,6.0,57,0.00,,,0.00,meteohub,2013-05-01 21:33:00,
2013-05-01 17:38:00,72.7,56.5,29.43,NW,315,4.0,6.0,57,0.00,,,0.00,meteohub,2013-05-01 21:38:00,
2013-05-01 17:43:00,72.3,57.2,29.43,SSW,203,2.0,7.0,59,0.00,,,0.00,meteohub,2013-05-01 21:43:00,
2013-05-01 17:48:00,72.1,56.5,29.43,NW,315,3.0,7.0,58,0.00,,,0.00,meteohub,2013-05-01 21:48:00,
2013-05-01 17:53:00,72.1,56.5,29.43,NE,45,4.0,6.0,58,0.00,,,0.00,meteohub,2013-05-01 21:53:00,
2013-05-01 17:58:00,72.0,56.3,29.43,North,0,3.0,6.0,58,0.00,,,0.00,meteohub,2013-05-01 21:58:00,
2013-05-01 18:03:00,71.8,56.1,29.43,NW,315,7.0,7.0,58,0.00,,,0.00,meteohub,2013-05-01 22:03:00,
2013-05-01 18:08:00,70.7,55.6,29.43,NNW,338,2.0,7.0,59,0.00,,,0.00,meteohub,2013-05-01 22:08:00,
2013-05-01 18:13:00,70.2,55.2,29.43,North,0,7.0,7.0,59,0.00,,,0.00,meteohub,2013-05-01 22:13:00,
2013-05-01 18:18:00,69.4,54.0,29.45,North,0,4.0,7.0,58,0.00,,,0.00,meteohub,2013-05-01 22:18:00,
2013-05-01 18:23:00,68.9,53.6,29.45,South,180,4.0,7.0,58,0.00,,,0.00,meteohub,2013-05-01 22:23:00,
2013-05-01 18:28:00,67.8,53.4,29.45,NW,315,2.0,7.0,60,0.00,,,0.00,meteohub,2013-05-01 22:28:00,
2013-05-01 18:33:00,67.8,53.4,29.45,WSW,248,4.0,7.0,60,0.00,,,0.00,meteohub,2013-05-01 22:33:00,
2013-05-01 18:38:00,67.1,52.7,29.46,WNW,293,2.0,7.0,60,0.00,,,0.00,meteohub,2013-05-01 22:38:00,
2013-05-01 18:43:00,66.7,52.3,29.46,SW,225,4.0,4.0,60,0.00,,,0.00,meteohub,2013-05-01 22:43:00,
2013-05-01 18:48:00,66.2,52.3,29.46,NNW,338,7.0,7.0,61,0.00,,,0.00,meteohub,2013-05-01 22:48:00,
2013-05-01 18:53:00,65.7,51.8,29.46,NW,315,2.0,6.0,61,0.00,,,0.00,meteohub,2013-05-01 22:53:00,
2013-05-01 18:58:00,64.8,50.5,29.46,SSW,203,5.0,7.0,60,0.00,,,0.00,meteohub,2013-05-01 22:58:00,
2013-05-01 19:03:00,64.0,49.5,29.46,South,180,0.0,7.0,59,0.00,,,0.00,meteohub,2013-05-01 23:03:00,
2013-05-01 19:08:00,63.1,48.6,29.46,NW,315,0.0,7.0,59,0.00,,,0.00,meteohub,2013-05-01 23:08:00,
2013-05-01 19:14:00,62.8,48.2,29.46,SW,225,4.0,7.0,59,0.00,,,0.00,meteohub,2013-05-01 23:14:00,
2013-05-01 19:19:00,61.7,47.3,29.47,SSE,158,3.0,6.0,59,0.00,,,0.00,meteohub,2013-05-01 23:19:00,
2013-05-01 19:24:00,61.2,46.8,29.47,SSE,158,2.0,6.0,59,0.00,,,0.00,meteohub,2013-05-01 23:24:00,
2013-05-01 19:29:00,60.6,46.2,29.47,WNW,293,2.0,6.0,59,0.00,,,0.00,meteohub,2013-05-01 23:29:00,
2013-05-01 19:34:00,60.3,46.4,29.47,SW,225,3.0,4.0,60,0.00,,,0.00,meteohub,2013-05-01 23:34:00,
2013-05-01 19:39:00,59.5,45.7,29.48,WNW,293,3.0,4.0,60,0.00,,,0.00,meteohub,2013-05-01 23:39:00,
2013-05-01 19:44:00,59.0,45.1,29.48,South,180,2.0,5.0,60,0.00,,,0.00,meteohub,2013-05-01 23:44:00,
2013-05-01 19:49:00,58.8,45.3,29.48,WSW,248,2.0,5.0,61,0.00,,,0.00,meteohub,2013-05-01 23:49:00,
2013-05-01 19:54:00,58.5,45.5,29.49,WNW,293,2.0,5.0,62,0.00,,,0.00,meteohub,2013-05-01 23:54:00,
2013-05-01 19:59:00,57.9,45.0,29.49,NNW,338,2.0,3.0,62,0.00,,,0.00,meteohub,2013-05-01 23:59:00,
2013-05-01 20:04:00,57.7,45.3,29.49,West,270,2.0,3.0,63,0.00,,,0.00,meteohub,2013-05-02 00:04:00,
2013-05-01 20:09:00,57.6,45.1,29.49,North,0,1.0,4.0,63,0.00,,,0.00,meteohub,2013-05-02 00:09:00,
2013-05-01 20:14:00,57.4,45.0,29.49,WSW,248,2.0,4.0,63,0.00,,,0.00,meteohub,2013-05-02 00:14:00,
2013-05-01 20:19:00,57.2,45.1,29.49,SW,225,0.0,3.0,64,0.00,,,0.00,meteohub,2013-05-02 00:19:00,
2013-05-01 20:24:00,57.0,45.0,29.49,WNW,293,0.0,2.0,64,0.00,,,0.00,meteohub,2013-05-02 00:24:00,
2013-05-01 20:29:00,56.7,45.0,29.49,South,180,0.0,2.0,65,0.00,,,0.00,meteohub,2013-05-02 00:29:00,
2013-05-01 20:34:00,56.3,44.6,29.51,WNW,293,2.0,3.0,65,0.00,,,0.00,meteohub,2013-05-02 00:34:00,
2013-05-01 20:39:00,55.9,44.4,29.51,WSW,248,4.0,4.0,65,0.00,,,0.00,meteohub,2013-05-02 00:39:00,
2013-05-01 20:44:00,55.4,43.9,29.51,West,270,3.0,3.0,65,0.00,,,0.00,meteohub,2013-05-02 00:44:00,
2013-05-01 20:49:00,54.9,43.3,29.51,WNW,293,1.0,4.0,65,0.00,,,0.00,meteohub,2013-05-02 00:49:00,
2013-05-01 20:55:00,54.5,43.0,29.51,WNW,293,2.0,4.0,65,0.00,,,0.00,meteohub,2013-05-02 00:55:00,
2013-05-01 21:00:00,53.8,42.6,29.51,NW,315,1.0,3.0,66,0.00,,,0.00,meteohub,2013-05-02 01:00:00,
2013-05-01 21:05:00,53.4,42.8,29.51,West,270,0.0,2.0,67,0.00,,,0.00,meteohub,2013-05-02 01:05:00,
2013-05-01 21:10:00,53.1,42.4,29.51,NW,315,0.0,3.0,67,0.00,,,0.00,meteohub,2013-05-02 01:10:00,
2013-05-01 21:15:00,52.9,42.6,29.52,NW,315,3.0,3.0,68,0.00,,,0.00,meteohub,2013-05-02 01:15:00,
2013-05-01 21:20:00,52.7,42.4,29.52,SSW,203,0.0,2.0,68,0.00,,,0.00,meteohub,2013-05-02 01:20:00,
2013-05-01 21:25:00,52.7,42.8,29.52,ESE,113,0.0,3.0,69,0.00,,,0.00,meteohub,2013-05-02 01:25:00,
2013-05-01 21:30:00,52.5,42.6,29.52,WSW,248,2.0,3.0,69,0.00,,,0.00,meteohub,2013-05-02 01:30:00,
2013-05-01 21:35:00,52.5,42.6,29.53,South,180,0.0,3.0,69,0.00,,,0.00,meteohub,2013-05-02 01:35:00,
2013-05-01 21:40:00,52.5,42.6,29.53,West,270,0.0,3.0,69,0.00,,,0.00,meteohub,2013-05-02 01:40:00,
2013-05-01 21:45:00,52.5,43.0,29.53,SSW,203,0.0,3.0,70,0.00,,,0.00,meteohub,2013-05-02 01:45:00,
2013-05-01 21:50:00,52.7,43.2,29.53,WNW,293,3.0,3.0,70,0.00,,,0.00,meteohub,2013-05-02 01:50:00,
2013-05-01 21:55:00,52.9,43.3,29.53,SW,225,2.0,3.0,70,0.00,,,0.00,meteohub,2013-05-02 01:55:00,
2013-05-01 22:00:00,52.9,43.3,29.53,West,270,0.0,3.0,70,0.00,,,0.00,meteohub,2013-05-02 02:00:00,
2013-05-01 22:05:00,53.1,43.5,29.53,NNE,23,0.0,3.0,70,0.00,,,0.00,meteohub,2013-05-02 02:05:00,
2013-05-01 22:10:00,53.2,43.7,29.53,NNE,23,0.0,2.0,70,0.00,,,0.00,meteohub,2013-05-02 02:10:00,
2013-05-01 22:15:00,53.6,43.3,29.55,NE,45,4.0,4.0,68,0.00,,,0.00,meteohub,2013-05-02 02:15:00,
2013-05-01 22:20:00,54.0,43.3,29.55,NNE,23,5.0,5.0,67,0.00,,,0.00,meteohub,2013-05-02 02:20:00,
2013-05-01 22:25:00,54.1,43.3,29.55,NE,45,3.0,4.0,67,0.00,,,0.00,meteohub,2013-05-02 02:25:00,
2013-05-01 22:30:00,54.1,43.3,29.55,WNW,293,3.0,5.0,67,0.00,,,0.00,meteohub,2013-05-02 02:30:00,
2013-05-01 22:35:00,54.1,43.0,29.55,NNE,23,0.0,3.0,66,0.00,,,0.00,meteohub,2013-05-02 02:35:00,
2013-05-01 22:40:00,54.1,43.0,29.55,WNW,293,4.0,4.0,66,0.00,,,0.00,meteohub,2013-05-02 02:40:00,
2013-05-01 22:45:00,54.0,42.4,29.55,North,0,3.0,4.0,65,0.00,,,0.00,meteohub,2013-05-02 02:45:00,
2013-05-01 22:50:00,53.8,41.9,29.55,East,90,3.0,4.0,64,0.00,,,0.00,meteohub,2013-05-02 02:50:00,
2013-05-01 22:55:00,53.6,41.7,29.55,NNE,23,4.0,9.0,64,0.00,,,0.00,meteohub,2013-05-02 02:55:00,
2013-05-01 23:00:00,53.2,41.4,29.55,NNE,23,2.0,9.0,64,0.00,,,0.00,meteohub,2013-05-02 03:00:00,
2013-05-01 23:05:00,53.1,41.2,29.55,NNW,338,2.0,9.0,64,0.00,,,0.00,meteohub,2013-05-02 03:05:00,
2013-05-01 23:10:00,52.7,40.8,29.55,NNW,338,0.0,4.0,64,0.00,,,0.00,meteohub,2013-05-02 03:10:00,
2013-05-01 23:15:00,52.5,40.6,29.55,NNW,338,2.0,4.0,64,0.00,,,0.00,meteohub,2013-05-02 03:15:00,
2013-05-01 23:20:00,52.3,40.5,29.55,WSW,248,2.0,4.0,64,0.00,,,0.00,meteohub,2013-05-02 03:20:00,
2013-05-01 23:25:00,52.0,40.1,29.55,NW,315,3.0,3.0,64,0.00,,,0.00,meteohub,2013-05-02 03:25:00,
2013-05-01 23:30:00,51.6,40.3,29.55,NE,45,0.0,4.0,65,0.00,,,0.00,meteohub,2013-05-02 03:30:00,
2013-05-01 23:35:00,51.3,39.9,29.55,NE,45,0.0,4.0,65,0.00,,,0.00,meteohub,2013-05-02 03:35:00,
2013-05-01 23:40:00,50.9,39.6,29.55,North,0,2.0,4.0,65,0.00,,,0.00,meteohub,2013-05-02 03:40:00,
2013-05-01 23:46:00,50.4,39.0,29.55,North,0,2.0,4.0,65,0.00,,,0.00,meteohub,2013-05-02 03:46:00,
2013-05-01 23:51:00,50.2,39.2,29.55,North,0,1.0,3.0,66,0.00,,,0.00,meteohub,2013-05-02 03:51:00,
2013-05-01 23:56:00,49.8,38.5,29.55,North,0,0.0,3.0,65,0.00,,,0.00,meteohub,2013-05-02 03:56:00,